createdAt,value
2022-08-11T00:02:06.799Z,40.86
2022-08-11T00:07:18.792Z,41.19
2022-08-11T00:12:21.830Z,40.53
2022-08-11T00:17:29.087Z,42.27
2022-08-11T00:22:33.356Z,41.73
2022-08-11T00:27:38.170Z,41.82
2022-08-11T00:32:46.566Z,41.40
2022-08-11T00:37:51.226Z,42.70
2022-08-11T00:43:02.983Z,42.41
2022-08-11T00:48:16.299Z,42.74
2022-08-11T00:53:34.042Z,43.21
2022-08-11T00:59:34.943Z,44.04
2022-08-11T01:05:05.614Z,44.12
2022-08-11T01:10:27.521Z,44.84
2022-08-11T01:16:15.744Z,45.19
2022-08-11T01:22:02.795Z,44.71
2022-08-11T01:27:40.847Z,45.68
2022-08-11T01:33:34.824Z,45.97
2022-08-11T01:39:02.077Z,46.33
2022-08-11T01:44:39.543Z,47.15
2022-08-11T01:50:08.114Z,46.71
2022-08-11T01:55:24.144Z,46.96
2022-08-11T02:00:30.514Z,47.11
2022-08-11T02:06:01.130Z,47.58
2022-08-11T02:11:35.673Z,47.45
2022-08-11T02:17:05.394Z,46.71
2022-08-11T02:22:32.628Z,47.52
2022-08-11T02:27:47.086Z,48.01
2022-08-11T02:33:14.209Z,47.97
2022-08-11T02:38:25.622Z,48.78
2022-08-11T02:43:41.707Z,47.31
2022-08-11T02:49:15.850Z,47.41
2022-08-11T02:54:25.135Z,47.96
2022-08-11T02:59:51.438Z,49.24
2022-08-11T03:05:08.171Z,49.35
2022-08-11T03:10:19.350Z,49.69
2022-08-11T03:16:01.228Z,49.95
2022-08-11T03:21:11.038Z,50.41
2022-08-11T03:26:25.280Z,50.55
2022-08-11T03:31:34.235Z,51.27
2022-08-11T03:37:16.712Z,51.48
2022-08-11T03:42:31.310Z,51.24
2022-08-11T03:47:58.840Z,51.44
2022-08-11T03:53:13.609Z,50.46
2022-08-11T03:58:58.092Z,50.57
2022-08-11T04:04:35.551Z,51.84
2022-08-11T04:10:11.284Z,52.08
2022-08-11T04:16:11.559Z,52.04
2022-08-11T04:21:47.826Z,52.42
2022-08-11T04:27:14.597Z,51.55
2022-08-11T04:32:48.336Z,52.69
2022-08-11T04:38:11.146Z,53.34
2022-08-11T04:44:02.109Z,52.90
2022-08-11T04:49:52.058Z,53.42
2022-08-11T04:55:27.776Z,54.40
2022-08-11T05:01:09.951Z,53.92
2022-08-11T05:07:05.620Z,54.24
2022-08-11T05:12:32.133Z,54.02
2022-08-11T05:18:00.831Z,53.70
2022-08-11T05:23:27.477Z,53.81
2022-08-11T05:28:51.759Z,53.56
2022-08-11T05:34:17.802Z,53.77
2022-08-11T05:39:42.491Z,53.68
2022-08-11T05:45:04.545Z,53.38
2022-08-11T05:50:38.014Z,53.16
2022-08-11T05:56:02.962Z,52.71
2022-08-11T06:01:07.772Z,52.71
2022-08-11T06:06:12.324Z,51.50
2022-08-11T06:11:17.897Z,51.93
2022-08-11T06:16:24.871Z,51.39
2022-08-11T06:21:29.346Z,50.46
2022-08-11T06:26:40.840Z,49.65
2022-08-11T06:31:59.247Z,49.22
2022-08-11T06:37:18.491Z,49.92
2022-08-11T06:42:45.505Z,49.50
2022-08-11T06:47:49.486Z,49.65
2022-08-11T06:52:54.896Z,48.97
2022-08-11T06:58:15.881Z,47.92
2022-08-11T07:03:21.310Z,48.22
2022-08-11T07:09:01.610Z,47.68
2022-08-11T07:14:23.657Z,47.44
2022-08-11T07:19:43.216Z,46.82
2022-08-11T07:25:13.146Z,46.28
2022-08-11T07:30:18.267Z,46.37
2022-08-11T07:35:29.188Z,45.88
2022-08-11T07:40:35.045Z,45.77
2022-08-11T07:46:00.602Z,45.73
2022-08-11T07:51:21.301Z,45.10
2022-08-11T07:56:49.831Z,45.08
2022-08-11T08:02:06.317Z,44.71
2022-08-11T08:07:26.725Z,44.47
2022-08-11T08:12:51.153Z,44.35
2022-08-11T08:18:20.693Z,43.96
2022-08-11T08:23:33.193Z,43.92
2022-08-11T08:28:38.230Z,43.59
2022-08-11T08:33:43.087Z,43.15
2022-08-11T08:38:49.915Z,43.17
2022-08-11T08:44:21.083Z,42.89
2022-08-11T08:49:27.973Z,42.69
2022-08-11T08:54:37.473Z,42.50
2022-08-11T08:59:48.680Z,42.04
2022-08-11T09:04:52.953Z,41.53
2022-08-11T09:09:59.278Z,41.39
2022-08-11T09:15:07.970Z,41.00
2022-08-11T09:20:14.286Z,40.58
2022-08-11T09:25:35.070Z,40.60
2022-08-11T09:30:42.642Z,40.09
2022-08-11T09:35:47.780Z,39.86
2022-08-11T09:40:56.143Z,39.91
2022-08-11T09:46:02.201Z,39.98
2022-08-11T09:51:05.828Z,39.51
2022-08-11T09:56:30.267Z,39.46
2022-08-11T10:01:41.621Z,39.09
2022-08-11T10:07:06.830Z,38.76
2022-08-11T10:12:12.951Z,38.21
2022-08-11T10:17:19.909Z,38.25
2022-08-11T10:22:40.238Z,38.13
2022-08-11T10:28:16.903Z,37.63
2022-08-11T10:33:37.746Z,37.31
2022-08-11T10:38:42.115Z,37.48
2022-08-11T10:44:03.268Z,36.94
2022-08-11T10:49:09.319Z,36.30
2022-08-11T10:54:29.909Z,36.02
2022-08-11T10:59:35.960Z,35.55
2022-08-11T11:04:53.709Z,35.49
2022-08-11T11:10:00.094Z,34.91
2022-08-11T11:15:23.197Z,35.06
2022-08-11T11:20:37.832Z,34.65
2022-08-11T11:26:10.173Z,34.14
2022-08-11T11:31:23.502Z,34.35
2022-08-11T11:36:33.155Z,33.67
2022-08-11T11:41:37.011Z,33.69
2022-08-11T11:46:40.842Z,33.32
2022-08-11T11:51:50.204Z,33.11
2022-08-11T11:56:55.777Z,32.63
2022-08-11T12:01:59.022Z,32.24
2022-08-11T12:07:17.712Z,31.76
2022-08-11T12:12:39.395Z,31.80
2022-08-11T12:17:42.326Z,31.30
2022-08-11T12:23:04.231Z,30.57
2022-08-11T12:28:07.257Z,30.35
2022-08-11T12:33:10.323Z,30.06
2022-08-11T12:38:17.953Z,30.11
2022-08-11T12:43:56.962Z,29.50
2022-08-11T12:49:21.166Z,29.55
2022-08-11T12:54:29.651Z,28.62
2022-08-11T12:59:50.982Z,28.49
2022-08-11T13:04:59.303Z,28.13
2022-08-11T13:10:05.711Z,27.52
2022-08-11T13:15:11.290Z,27.33
2022-08-11T13:20:15.259Z,27.14
2022-08-11T13:25:22.011Z,26.42
2022-08-11T13:30:47.130Z,25.86
2022-08-11T13:35:55.848Z,26.01
2022-08-11T13:41:00.603Z,25.72
2022-08-11T13:46:17.442Z,25.31
2022-08-11T13:51:34.754Z,24.81
2022-08-11T13:56:43.514Z,24.51
2022-08-11T14:02:20.286Z,24.48
2022-08-11T14:07:18.737Z,24.16
2022-08-11T14:12:44.253Z,24.54
2022-08-11T14:17:53.032Z,24.24
2022-08-11T14:22:56.488Z,24.36
2022-08-11T14:28:31.820Z,23.42
2022-08-11T14:33:23.878Z,21.32
2022-08-11T14:38:43.121Z,20.21
2022-08-11T14:44:13.656Z,19.08
2022-08-11T14:49:17.805Z,18.04
2022-08-11T14:54:38.005Z,18.03
2022-08-11T14:59:43.582Z,19.24
2022-08-11T15:04:46.834Z,19.62
2022-08-11T15:10:12.254Z,20.06
2022-08-11T15:15:32.082Z,20.49
2022-08-11T15:21:08.042Z,20.88
2022-08-11T15:26:14.886Z,21.35
2022-08-11T15:31:38.439Z,21.65
2022-08-11T15:37:01.637Z,21.90
2022-08-11T15:42:27.181Z,21.38
2022-08-11T15:47:41.740Z,20.15
2022-08-11T15:52:53.671Z,18.68
2022-08-11T15:58:17.804Z,18.66
2022-08-11T16:04:06.131Z,17.57
2022-08-11T16:09:18.075Z,17.36
2022-08-11T16:14:41.371Z,18.41
2022-08-11T16:19:50.086Z,17.39
2022-08-11T16:27:03.405Z,17.40
2022-08-11T16:30:17.750Z,18.17
2022-08-11T16:35:43.281Z,17.79
2022-08-11T16:40:47.934Z,17.43
2022-08-11T16:46:08.475Z,18.28
2022-08-11T16:51:14.515Z,18.87
2022-08-11T16:56:21.229Z,20.71
2022-08-11T17:01:26.589Z,20.02
2022-08-11T17:06:48.709Z,20.79
2022-08-11T17:12:12.021Z,21.38
2022-08-11T17:17:19.122Z,21.96
2022-08-11T17:22:41.626Z,21.76
2022-08-11T17:27:45.606Z,21.30
2022-08-11T17:33:11.034Z,20.94
2022-08-11T17:38:17.631Z,20.67
2022-08-11T17:43:37.712Z,20.90
2022-08-11T17:48:47.336Z,22.35
2022-08-11T17:54:23.621Z,23.71
2022-08-11T17:59:49.066Z,24.79
2022-08-11T18:04:54.997Z,25.72
2022-08-11T18:10:17.902Z,26.97
2022-08-11T18:15:38.472Z,28.00
2022-08-11T18:21:10.903Z,29.42
2022-08-11T18:26:36.686Z,30.39
2022-08-11T18:32:02.494Z,31.54
2022-08-11T18:37:29.009Z,32.20
2022-08-11T18:42:52.452Z,32.24
2022-08-11T20:48:46.074Z,35.09
2022-08-11T20:54:07.699Z,35.34
2022-08-11T20:59:30.110Z,35.38
2022-08-11T21:04:57.490Z,35.81
2022-08-11T21:10:23.289Z,36.37
2022-08-11T21:16:02.987Z,36.63
2022-08-11T21:21:27.785Z,36.86
2022-08-11T21:26:51.728Z,35.84
2022-08-11T21:32:13.743Z,35.88
2022-08-11T21:37:37.891Z,35.68
2022-08-11T21:43:02.276Z,35.82
2022-08-11T21:48:24.278Z,35.42
2022-08-11T21:53:46.693Z,35.77
2022-08-11T21:59:08.027Z,35.21
2022-08-11T22:04:29.491Z,35.31
2022-08-11T22:09:51.378Z,36.38
2022-08-11T22:15:12.801Z,36.09
2022-08-11T22:20:33.103Z,37.07
2022-08-11T22:25:59.695Z,37.34
2022-08-11T22:31:24.787Z,38.00
2022-08-11T22:36:46.208Z,38.07
2022-08-11T22:42:07.960Z,38.51
2022-08-11T22:47:38.360Z,39.10
2022-08-11T22:53:01.649Z,39.65
2022-08-11T22:58:24.828Z,39.58
2022-08-11T23:03:45.334Z,39.42
2022-08-11T23:09:06.871Z,40.66
2022-08-11T23:14:28.936Z,40.49
2022-08-11T23:20:01.848Z,41.38
2022-08-11T23:25:31.039Z,40.92
2022-08-11T23:30:54.025Z,41.00
2022-08-11T23:36:35.900Z,40.37
2022-08-11T23:41:55.905Z,41.48
2022-08-11T23:47:19.282Z,41.76
2022-08-11T23:52:41.327Z,42.01
2022-08-11T23:58:02.366Z,42.16
